Terminal Aerodrome Forecast
Issued by NWS Twin Cities, MN

Home | Current Version | Previous Version | Graphics & Text | Print | Product List | Glossary On
Versions: 1 2 3 4 5 6 7 8 9 10 11 12 13 14 15 16 17 18 19 20 21 22 23 24 25 26 27 28
962
FTUS43 KMPX 300258 AAA
TAFMSP
TAF AMD
KMSP 300258Z 3003/3106 29009KT P6SM SCT040 BKN100
     FM301300 29010KT P6SM BKN025
     FM301600 29014G22KT P6SM VCSH BKN025 OVC050
     FM310000 29012KT P6SM BKN050=

USA.gov is the U.S. government's official web portal to all federal, state and local government web resources and services.